Airfield :
LOGIN :

Register | Disclaimer

   EN    FR    IT 

 










Legend :    VFR   Marginal VFR   IFR   Intensive IFR   Very Intensive IFR
Visi :
Ceiling :
>= 8 km
>= 3000ft
5 to 8 km
1000 to 3000 ft
1500m to 5 km
500 to 1000 ft
800 to 1500m
200 to 500 ft
< 800m
< 200 ft
Symbols :   Thunderstorms  Fog  Heavy snow  Heavy precipitations  Wind > 20 kt
SIGMETs :     Misc.  Thunderstorms  Icing  Turbulence  Mountain Waves  Volcanic Ashes






- Airport Elevation : 826 ft
- IATA code : CWC


UKLN - Chernivtsi International

CURRENT METAR :
  • 200430Z 30004MPS 190V340 9999 OVC024 08/07 Q1013 R33/19//65 NOSIG

EXPIRED METARs :
  • 200400Z 30003MPS 250V340 9999 BKN013 BKN023CB 08/07 Q1013 R33/19//65 NOSIG
  • 200330Z 32003MPS 280V360 9999 -SHRA BKN020CB 08/07 Q1012 R33/19//65 NOSIG
  • 200300Z 30004MPS 250V330 9999 OVC012 09/07 Q1012 R33/19//65 NOSIG
  • 200230Z 30004MPS 260V350 9999 OVC012 09/08 Q1012 R33/19//65 NOSIG
  • 200200Z 28003MPS 230V320 9999 OVC012 09/08 Q1012 R33/19//65 NOSIG

TAF TAF UKLN
Valid from the 20 at 03:00 until the 20 at 12:00 UTC


200207Z 2003/2012 28005MPS 9999 BKN011
TEMPO 2003/2012 BKN007 BKN020CB



MET'MAP, your aeronautical weather chart ! - Copyright ORBIFLY December 2007 - Disclaimer

ORBIFLY MET'MAP TEAM :

Programming & Development : Alexandra Zaïnal
Concept & original design : Baudouin d'Aumeries
Assistance for programming : Marc-Olivier Méhu
Technical & hardware support : Manuel Goepfert

Contact : metmap@orbifly.com




SOURCES & CREDITS :

   NOAA